Jacksonville, FL

3:34 PM EST on December 28, 2014 (GMT -0500)
San marco | Change Station
CLOSE
Current Station
Personal Weather Station
Location: Jacksonville, FL
Elevation: 25 ft
Nearby Weather Stations

Elev 25 ft 30.31 °N, 81.64 °W | Updated 1 second ago

Mostly Cloudy
Mostly Cloudy
78.3 °F
Feels Like 80 °F
N
2.7
Wind Variable Wind from West
Gusts 4.9 mph

Today
High -- | Low -- °F
--% Chance of Precip.
Yesterday
High -- | Low -- °F
Precip. -- in
7:22 AM 5:34 PM
Waxing Crescent, 51% visible
Pressure 30.06 in
Visibility 10.0 miles
Clouds Scattered Clouds 3400 ft
Mostly Cloudy 25000 ft
Heat Index 80 °F
Dew Point 65 °F
Humidity 64%
Rainfall 0.00 in
Snow Depth Not available.
UV 2 out of 12
Pollen 2.90 out of 12
Air Quality Not available.
Flu Activity Not available.
METAR KNIP 281953Z 23012KT 10SM SCT034 BKN250 28/17 A3007 RMK AO2 SLP177 T02830172 $

More Conditions Fewer Conditions

Pressure 30.06 in
Visibility 10.0 miles
Clouds Scattered Clouds 3400 ft
Mostly Cloudy 25000 ft
Heat Index 80 °F
Dew Point 65 °F
Humidity 64%
Rainfall 0.00 in
Snow Depth Not available.
UV 2 out of 12
Pollen 2.90 out of 12
Air Quality Not available.
Flu Activity Not available.
METAR KNIP 281953Z 23012KT 10SM SCT034 BKN250 28/17 A3007 RMK AO2 SLP177 T02830172 $

More Conditions Fewer Conditions

10-Day Weather Forecast

Almanac

Astronomy

Dec. 28, 2014 Rise Set
Actual Time
Civil Twilight
Nautical Twilight
Astronomical Twilight
Moon
Length of Visible Light
Length of Day
Tomorrow will be .
, % of the Moon is Illuminated

Today's Extremes

State Highs State Lows

Community

WunderPhotos

Upload Photos

1,781,414 photos uploaded!

WunderBlogs® & News

Nearby

Air Quality

  Air Quality AQ Index Pollutant
Not available.

Snow Depth

Station Depth Elevation

Earthquake Activity

City Distance Mag. Time & Date
Minimum magnitude displayed is 2.5.

Coastal Water Temperatures

Place Temperature

Nearby Weather Stations